Time;durP1;ratioP1;P1;durP2;ratioP2;P2;SDS_P1;SDS_P2;PMS_P1;PMS_P2;Temp;Humidity;BMP_temperature;BMP_pressure;BME280_temperature;BME280_humidity;BME280_pressure;Samples;Min_cycle;Max_cycle;Signal;HPM_P1;HPM_P2
2022/10/18 00:01:40;;;;;;;38.97;27.40;;;13.00;99.90;;;;;;5073291;28;20037;-80
2022/10/18 00:04:05;;;;;;;333.42;46.85;;;12.90;99.90;;;;;;5056024;28;20049;-80
2022/10/18 00:06:31;;;;;;;58.47;31.60;;;13.30;99.90;;;;;;5073424;28;20068;-80
2022/10/18 00:08:57;;;;;;;68.15;27.83;;;13.10;99.90;;;;;;5055820;28;20101;-80
2022/10/18 00:11:22;;;;;;;61.40;31.45;;;13.00;99.90;;;;;;5073343;28;20045;-80
2022/10/18 00:13:48;;;;;;;64.53;29.15;;;13.00;99.90;;;;;;5072209;28;20036;-80
2022/10/18 00:16:15;;;;;;;86.17;32.87;;;13.00;99.90;;;;;;5073190;28;20388;-80
2022/10/18 00:18:41;;;;;;;272.67;44.38;;;12.90;99.90;;;;;;5073732;28;20055;-80
2022/10/18 00:21:27;;;;;;;40.40;26.40;;;12.90;99.90;;;;;;5073556;28;20052;-80
2022/10/18 00:23:53;;;;;;;195.13;36.53;;;12.90;99.90;;;;;;5077068;28;20061;-80
2022/10/18 00:26:25;;;;;;;65.97;27.20;;;13.40;99.90;;;;;;5076682;28;20086;-80
2022/10/18 00:28:56;;;;;;;28.38;23.27;;;12.90;99.90;;;;;;5076928;28;20051;-80
2022/10/18 00:31:26;;;;;;;29.42;20.95;;;12.80;99.90;;;;;;5077420;28;20040;-79
2022/10/18 00:33:55;;;;;;;50.50;25.48;;;13.00;99.90;;;;;;5076138;28;20182;-80
2022/10/18 00:36:23;;;;;;;395.40;54.95;;;12.90;99.90;;;;;;5076617;28;20094;-80
2022/10/18 00:38:49;;;;;;;55.15;24.73;;;13.00;99.90;;;;;;5076551;28;20044;-79
2022/10/18 00:41:18;;;;;;;46.33;24.52;;;12.90;99.90;;;;;;5076722;28;20437;-80
2022/10/18 00:44:01;;;;;;;33.92;22.55;;;13.00;99.90;;;;;;5077110;28;20472;-80
2022/10/18 00:46:30;;;;;;;53.10;21.30;;;12.90;99.90;;;;;;5075223;28;20066;-80
2022/10/18 00:49:00;;;;;;;63.78;25.90;;;12.90;99.90;;;;;;5076585;28;20044;-80
2022/10/18 00:51:43;;;;;;;113.70;29.00;;;12.90;99.90;;;;;;5075610;28;20427;-80
2022/10/18 00:54:09;;;;;;;36.72;25.20;;;13.40;99.90;;;;;;5076950;28;20094;-79
2022/10/18 00:56:35;;;;;;;56.38;24.42;;;13.00;99.90;;;;;;5076418;28;20036;-79
2022/10/18 00:59:01;;;;;;;32.97;23.60;;;13.10;99.90;;;;;;5076427;28;20043;-79
2022/10/18 01:01:26;;;;;;;45.95;25.42;;;13.00;99.90;;;;;;5075825;28;20045;-79
2022/10/18 01:03:53;;;;;;;67.93;27.53;;;13.10;99.90;;;;;;5076223;28;20465;-79
2022/10/18 01:06:18;;;;;;;149.65;31.88;;;13.10;99.90;;;;;;5076105;28;20037;-79
2022/10/18 01:08:54;;;;;;;101.22;30.73;;;13.10;99.90;;;;;;5075884;28;20113;-80
2022/10/18 01:11:54;;;;;;;276.65;40.95;;;13.10;99.90;;;;;;5075854;28;20444;-80
2022/10/18 01:14:30;;;;;;;169.02;34.22;;;13.10;99.90;;;;;;5076254;28;20053;-79
2022/10/18 01:17:10;;;;;;;349.52;46.13;;;13.10;99.90;;;;;;5076001;28;20036;-80
2022/10/18 01:20:06;;;;;;;47.90;25.63;;;13.10;99.90;;;;;;5076088;28;20041;-80
2022/10/18 01:22:38;;;;;;;89.70;30.23;;;13.10;99.90;;;;;;5076010;28;20088;-79
2022/10/18 01:25:28;;;;;;;50.20;25.85;;;13.10;99.90;;;;;;5075137;28;20396;-79
2022/10/18 01:28:15;;;;;;;149.00;34.58;;;13.10;99.90;;;;;;5076343;28;20046;-79
2022/10/18 01:30:46;;;;;;;44.35;25.77;;;13.20;99.90;;;;;;5076069;28;20048;-79
2022/10/18 01:33:36;;;;;;;90.15;30.17;;;13.20;99.90;;;;;;5074667;28;20048;-80
2022/10/18 01:36:32;;;;;;;69.13;26.60;;;13.20;99.90;;;;;;5076022;28;20051;-80
2022/10/18 01:39:04;;;;;;;109.75;31.30;;;12.90;99.90;;;;;;5067130;28;20564;-79
2022/10/18 01:41:31;;;;;;;46.22;26.33;;;13.20;99.90;;;;;;5075716;28;20052;-79
2022/10/18 01:44:00;;;;;;;82.35;31.08;;;13.20;99.90;;;;;;5075520;28;20139;-80
2022/10/18 01:46:27;;;;;;;54.42;27.42;;;13.10;99.90;;;;;;5075734;28;20060;-79
2022/10/18 01:48:54;;;;;;;251.13;39.10;;;13.20;99.90;;;;;;5075507;28;20106;-80
2022/10/18 01:51:29;;;;;;;101.88;26.70;;;13.10;99.90;;;;;;5074491;28;20045;-80
2022/10/18 01:53:55;;;;;;;60.42;27.75;;;13.20;99.90;;;;;;5074249;28;20369;-80
2022/10/18 01:56:31;;;;;;;60.92;28.02;;;13.20;99.90;;;;;;5074099;28;20036;-80
2022/10/18 01:59:05;;;;;;;65.88;27.10;;;13.20;99.90;;;;;;5075269;28;20128;-80
2022/10/18 02:02:06;;;;;;;47.17;24.27;;;13.10;99.90;;;;;;5075694;28;20416;-79
2022/10/18 02:05:00;;;;;;;204.68;34.72;;;13.20;99.90;;;;;;5075113;28;20545;-79
2022/10/18 02:07:42;;;;;;;53.30;24.45;;;13.20;99.90;;;;;;5075200;28;20076;-79
2022/10/18 02:10:24;;;;;;;74.10;27.45;;;13.20;99.90;;;;;;5075254;28;20112;-80
2022/10/18 02:12:51;;;;;;;34.25;23.98;;;13.10;99.90;;;;;;5073888;28;20435;-80
2022/10/18 02:15:22;;;;;;;42.80;23.00;;;13.70;99.90;;;;;;5074925;28;20052;-80
2022/10/18 02:17:47;;;;;;;104.05;29.00;;;13.10;99.90;;;;;;5073702;28;20056;-80
2022/10/18 02:20:18;;;;;;;49.73;24.17;;;13.20;99.90;;;;;;5074422;28;20040;-80
2022/10/18 02:22:46;;;;;;;100.38;25.90;;;13.10;99.90;;;;;;5074985;28;20106;-79
2022/10/18 02:25:19;;;;;;;144.05;29.85;;;13.00;99.90;;;;;;5074561;28;20055;-80
2022/10/18 02:27:44;;;;;;;54.63;25.63;;;13.60;99.90;;;;;;5074459;28;20545;-80
2022/10/18 02:30:11;;;;;;;74.93;26.60;;;13.10;99.90;;;;;;5056902;28;20131;-80
2022/10/18 02:32:38;;;;;;;;;;;13.10;99.90;;;;;;5073842;28;20052;-80
2022/10/18 02:35:10;;;;;;;44.80;22.77;;;13.00;99.90;;;;;;5074565;28;19921;-80
2022/10/18 02:37:38;;;;;;;115.75;28.08;;;13.00;99.90;;;;;;5074456;28;20036;-80
2022/10/18 02:40:06;;;;;;;139.95;27.15;;;13.10;99.90;;;;;;5074576;28;20087;-80
2022/10/18 02:42:37;;;;;;;68.68;21.20;;;13.00;99.90;;;;;;5074290;28;20080;-79
2022/10/18 02:45:05;;;;;;;34.78;19.77;;;13.20;99.90;;;;;;5073522;28;20056;-79
2022/10/18 02:47:31;;;;;;;111.55;23.27;;;13.00;99.90;;;;;;5073961;28;20048;-80
2022/10/18 02:49:56;;;;;;;45.17;19.80;;;13.00;99.90;;;;;;5074320;28;20081;-80
2022/10/18 02:52:22;;;;;;;49.88;21.52;;;12.90;99.90;;;;;;5074242;28;20392;-79
2022/10/18 02:54:47;;;;;;;143.53;25.53;;;13.00;99.90;;;;;;5074192;28;20091;-80
2022/10/18 02:57:13;;;;;;;91.60;22.48;;;13.00;99.90;;;;;;5072975;28;20115;-80
2022/10/18 02:59:39;;;;;;;126.10;29.05;;;12.70;99.90;;;;;;5074086;28;20041;-80
2022/10/18 03:02:04;;;;;;;55.00;22.08;;;13.00;99.90;;;;;;5073167;28;20089;-80
2022/10/18 03:04:30;;;;;;;84.20;24.10;;;13.00;99.90;;;;;;5073997;28;20037;-80
2022/10/18 03:06:55;;;;;;;36.95;20.50;;;13.00;99.90;;;;;;5074020;28;20182;-80
2022/10/18 03:09:21;;;;;;;33.60;21.67;;;13.40;99.90;;;;;;5072872;28;20044;-80
2022/10/18 03:11:46;;;;;;;36.47;21.27;;;13.00;99.90;;;;;;5073962;28;20053;-79
2022/10/18 03:14:12;;;;;;;80.23;22.80;;;12.90;99.90;;;;;;5073839;28;20447;-79
2022/10/18 03:16:37;;;;;;;95.77;28.20;;;13.00;99.90;;;;;;5074287;28;20040;-79
2022/10/18 03:19:03;;;;;;;75.00;28.08;;;12.90;99.90;;;;;;5073836;28;20040;-79
2022/10/18 03:21:29;;;;;;;65.78;25.52;;;13.50;99.90;;;;;;5073840;28;20086;-80
2022/10/18 03:23:55;;;;;;;148.40;31.30;;;12.90;99.90;;;;;;5073657;28;20507;-79
2022/10/18 03:26:20;;;;;;;117.77;29.20;;;12.90;99.90;;;;;;5072652;28;20122;-80
2022/10/18 03:28:46;;;;;;;125.22;28.40;;;12.90;99.90;;;;;;5073706;28;20087;-80
2022/10/18 03:31:12;;;;;;;62.20;22.48;;;13.00;99.90;;;;;;5073747;28;20084;-79
2022/10/18 03:33:37;;;;;;;53.88;25.45;;;12.90;99.90;;;;;;5072784;28;20131;-80
2022/10/18 03:36:03;;;;;;;30.43;23.67;;;12.90;99.90;;;;;;5073892;28;20102;-80
2022/10/18 03:38:29;;;;;;;50.17;23.25;;;12.90;99.90;;;;;;5073734;28;20131;-80
2022/10/18 03:40:55;;;;;;;56.00;22.77;;;12.90;99.90;;;;;;5073471;28;20051;-80
2022/10/18 03:43:21;;;;;;;79.73;23.10;;;13.50;99.90;;;;;;5073580;28;20045;-80
2022/10/18 03:45:46;;;;;;;109.43;26.30;;;12.60;99.90;;;;;;5073246;28;20133;-79
2022/10/18 03:48:12;;;;;;;38.30;23.58;;;13.20;99.90;;;;;;5073878;28;20052;-80
2022/10/18 03:50:37;;;;;;;83.75;24.58;;;12.90;99.90;;;;;;5055987;28;20052;-80
2022/10/18 03:53:03;;;;;;;108.20;25.03;;;13.30;99.90;;;;;;5073255;28;20040;-79
2022/10/18 03:55:28;;;;;;;78.90;26.65;;;12.60;99.90;;;;;;5074583;28;20044;-79
2022/10/18 03:57:54;;;;;;;51.97;22.50;;;12.90;99.90;;;;;;5077536;28;20123;-79
2022/10/18 04:00:19;;;;;;;51.08;24.98;;;12.90;99.90;;;;;;5077499;28;20055;-79
2022/10/18 04:02:45;;;;;;;55.55;23.02;;;12.90;99.90;;;;;;5076834;28;20492;-79
2022/10/18 04:05:11;;;;;;;120.15;31.02;;;13.10;99.90;;;;;;5077540;28;20129;-79
2022/10/18 04:07:37;;;;;;;44.58;22.58;;;12.90;99.90;;;;;;5077783;28;20438;-80
2022/10/18 04:10:03;;;;;;;82.57;24.05;;;12.90;99.90;;;;;;5077408;28;20049;-79
2022/10/18 04:12:28;;;;;;;102.35;27.73;;;12.80;99.90;;;;;;5077286;28;20045;-79
2022/10/18 04:14:54;;;;;;;45.87;19.90;;;12.80;99.90;;;;;;5077290;28;20050;-80
2022/10/18 04:17:20;;;;;;;28.27;20.08;;;12.80;99.90;;;;;;5077360;28;20048;-80
2022/10/18 04:19:45;;;;;;;56.25;21.60;;;12.80;99.90;;;;;;5077181;28;20131;-79
2022/10/18 04:22:11;;;;;;;26.90;18.75;;;12.80;99.90;;;;;;5077135;28;20473;-79
2022/10/18 04:24:37;;;;;;;31.50;17.13;;;12.80;99.90;;;;;;5077044;28;20045;-79
2022/10/18 04:27:04;;;;;;;28.00;18.33;;;12.80;99.90;;;;;;5075970;28;20060;-79
2022/10/18 04:29:30;;;;;;;106.53;28.73;;;12.80;99.90;;;;;;5076904;28;20045;-80
2022/10/18 04:31:55;;;;;;;84.70;24.53;;;12.90;99.90;;;;;;5076003;28;20089;-79
2022/10/18 04:34:21;;;;;;;263.20;38.35;;;13.00;99.90;;;;;;5076876;28;20484;-79
2022/10/18 04:36:47;;;;;;;77.15;24.88;;;12.80;99.90;;;;;;5076818;28;20102;-80
2022/10/18 04:39:12;;;;;;;75.27;22.37;;;12.80;99.90;;;;;;5076741;28;20047;-80
2022/10/18 04:41:38;;;;;;;36.75;19.48;;;12.80;99.90;;;;;;5075540;28;20585;-77
2022/10/18 04:44:04;;;;;;;46.57;20.27;;;12.60;99.90;;;;;;5076597;28;20059;-80
2022/10/18 04:46:29;;;;;;;42.97;18.38;;;12.90;99.90;;;;;;5076929;28;20091;-79
2022/10/18 04:48:55;;;;;;;21.27;15.60;;;12.80;99.90;;;;;;5076685;28;20130;-80
2022/10/18 04:51:21;;;;;;;72.10;22.87;;;12.80;99.90;;;;;;5075721;28;20041;-79
2022/10/18 04:53:46;;;;;;;53.38;20.70;;;12.40;99.90;;;;;;5076461;28;20048;-81
2022/10/18 04:56:12;;;;;;;58.13;19.90;;;12.80;99.90;;;;;;5076443;28;20044;-80
2022/10/18 04:58:38;;;;;;;34.42;18.20;;;12.80;99.90;;;;;;5076364;28;20054;-82
2022/10/18 05:01:07;;;;;;;42.03;18.42;;;12.70;99.90;;;;;;5076459;28;20045;-78
2022/10/18 05:03:33;;;;;;;103.93;23.92;;;12.70;99.90;;;;;;5076044;28;20501;-79
2022/10/18 05:05:59;;;;;;;78.15;17.90;;;12.50;99.90;;;;;;5076610;28;20036;-79
2022/10/18 05:08:24;;;;;;;60.10;20.25;;;12.70;99.90;;;;;;5075721;28;20538;-78
2022/10/18 05:10:50;;;;;;;35.50;14.00;;;12.70;99.90;;;;;;5076233;28;20041;-80
2022/10/18 05:13:16;;;;;;;74.97;18.30;;;12.70;99.90;;;;;;5076149;28;20045;-80
2022/10/18 05:15:41;;;;;;;93.25;23.42;;;12.40;99.90;;;;;;5076150;28;20052;-78
2022/10/18 05:18:07;;;;;;;93.38;17.00;;;12.40;99.90;;;;;;5076011;28;20048;-80
2022/10/18 05:20:32;;;;;;;84.60;19.67;;;12.70;99.90;;;;;;5076081;28;20079;-81
2022/10/18 05:22:58;;;;;;;113.85;25.38;;;12.70;99.90;;;;;;5075114;28;20079;-80
2022/10/18 05:25:24;;;;;;;62.85;19.98;;;12.70;99.90;;;;;;5076028;28;20044;-80
2022/10/18 05:27:49;;;;;;;55.20;20.30;;;13.10;99.90;;;;;;5075867;28;20067;-80
2022/10/18 05:30:15;;;;;;;42.40;17.65;;;12.60;99.90;;;;;;5075906;28;20055;-80
2022/10/18 05:32:41;;;;;;;58.80;18.23;;;12.60;99.90;;;;;;5075001;28;20037;-80
2022/10/18 05:35:06;;;;;;;60.42;18.33;;;12.60;99.90;;;;;;5075491;28;20048;-79
2022/10/18 05:37:32;;;;;;;48.97;16.95;;;12.60;99.90;;;;;;5075841;28;20048;-80
2022/10/18 05:39:58;;;;;;;49.17;17.85;;;12.60;99.90;;;;;;5075594;28;20047;-80
2022/10/18 05:42:23;;;;;;;61.53;17.57;;;12.80;99.90;;;;;;5075656;28;20048;-80
2022/10/18 05:44:49;;;;;;;160.10;27.17;;;12.60;99.90;;;;;;5075548;28;20080;-82
2022/10/18 05:47:15;;;;;;;37.27;15.73;;;12.50;99.90;;;;;;5074710;28;20056;-81
2022/10/18 05:49:40;;;;;;;21.30;11.77;;;12.30;99.90;;;;;;5075077;28;20131;-82
2022/10/18 05:52:06;;;;;;;20.40;11.88;;;12.60;99.90;;;;;;5057933;28;20502;-80
2022/10/18 05:54:31;;;;;;;25.85;15.43;;;12.50;99.90;;;;;;5075435;28;20044;-81
2022/10/18 05:56:57;;;;;;;47.92;17.80;;;12.90;99.90;;;;;;5075360;28;20037;-81
2022/10/18 05:59:22;;;;;;;47.47;14.47;;;12.50;99.90;;;;;;5074334;28;20484;-79
2022/10/18 06:01:48;;;;;;;25.92;12.98;;;12.40;99.90;;;;;;5075670;28;20037;-78
2022/10/18 06:04:14;;;;;;;22.60;12.40;;;12.40;99.90;;;;;;5075233;28;20044;-80
2022/10/18 06:06:39;;;;;;;39.13;14.47;;;12.40;99.90;;;;;;5075206;28;20430;-78
2022/10/18 06:09:06;;;;;;;15.88;12.30;;;12.40;99.90;;;;;;5075213;28;20484;-79
2022/10/18 06:11:32;;;;;;;;;;;12.30;99.90;;;;;;5074362;28;20174;-79
2022/10/18 06:13:57;;;;;;;23.40;10.35;;;12.30;99.90;;;;;;5072839;28;20006;-79
2022/10/18 06:16:24;;;;;;;26.00;11.52;;;12.30;99.90;;;;;;5072946;28;20040;-80
2022/10/18 06:18:55;;;;;;;57.28;15.15;;;12.30;99.90;;;;;;5074009;28;20130;-79
2022/10/18 06:21:22;;;;;;;96.63;18.15;;;12.40;99.90;;;;;;5073830;28;20072;-80
2022/10/18 06:23:51;;;;;;;21.52;12.00;;;12.20;99.90;;;;;;5074829;28;20476;-79
2022/10/18 06:26:17;;;;;;;16.77;11.50;;;12.30;99.90;;;;;;5074417;28;20503;-79
2022/10/18 06:28:43;;;;;;;17.87;11.93;;;12.30;99.90;;;;;;5074196;28;20040;-79
2022/10/18 06:31:09;;;;;;;22.48;12.90;;;12.30;99.90;;;;;;5074650;28;20102;-79
2022/10/18 06:33:36;;;;;;;31.35;13.23;;;12.20;99.90;;;;;;5073144;28;20546;-79
2022/10/18 06:36:18;;;;;;;14.07;9.90;;;11.80;99.90;;;;;;5074488;28;20128;-80
2022/10/18 06:38:44;;;;;;;25.58;10.20;;;12.20;99.90;;;;;;5074533;28;20045;-79
2022/10/18 06:41:10;;;;;;;15.83;10.33;;;12.20;99.90;;;;;;5074357;28;20045;-79
2022/10/18 06:43:36;;;;;;;21.45;10.65;;;12.20;99.90;;;;;;5074849;28;20040;-80
2022/10/18 06:46:04;;;;;;;50.40;12.38;;;12.60;99.90;;;;;;5074141;28;20136;-79
2022/10/18 06:48:31;;;;;;;18.42;11.63;;;12.10;99.90;;;;;;5074334;28;20091;-80
2022/10/18 06:50:58;;;;;;;14.82;10.55;;;12.40;99.90;;;;;;5073986;28;20040;-79
2022/10/18 06:53:26;;;;;;;23.92;11.00;;;12.10;99.90;;;;;;5074253;28;20066;-79
2022/10/18 06:55:57;;;;;;;26.95;11.57;;;12.10;99.90;;;;;;5074192;28;20044;-80
2022/10/18 06:58:22;;;;;;;36.83;12.38;;;12.20;99.90;;;;;;5073054;28;20120;-79
2022/10/18 07:00:48;;;;;;;27.45;11.75;;;12.10;99.90;;;;;;5073982;28;20536;-81
2022/10/18 07:03:14;;;;;;;17.38;10.18;;;12.70;99.90;;;;;;5056203;28;20067;-80
2022/10/18 07:05:39;;;;;;;38.45;11.30;;;11.90;99.90;;;;;;5073798;28;20044;-80
2022/10/18 07:08:05;;;;;;;23.02;10.52;;;12.30;99.90;;;;;;5072613;28;20056;-82
2022/10/18 07:10:30;;;;;;;32.72;12.05;;;12.10;99.90;;;;;;5075730;28;20036;-81
2022/10/18 07:12:56;;;;;;;32.60;8.45;;;12.20;99.90;;;;;;5072600;28;20044;-83
2022/10/18 07:15:23;;;;;;;26.05;9.80;;;12.20;99.90;;;;;;5073804;28;20110;-79
2022/10/18 07:17:49;;;;;;;18.67;8.32;;;12.60;99.90;;;;;;5072446;28;20044;-83
2022/10/18 07:20:15;;;;;;;19.35;9.65;;;12.30;99.90;;;;;;5073759;28;20052;-82
2022/10/18 07:22:41;;;;;;;26.57;9.07;;;12.30;99.90;;;;;;5073770;28;20036;-79
2022/10/18 07:25:07;;;;;;;16.63;9.25;;;12.40;99.90;;;;;;5073809;28;20399;-81
2022/10/18 07:27:41;;;;;;;12.05;6.97;;;12.40;99.90;;;;;;5073638;28;20032;-80
2022/10/18 07:30:08;;;;;;;8.70;4.93;;;12.40;99.90;;;;;;5072456;28;20535;-79
2022/10/18 07:32:34;;;;;;;10.98;5.38;;;12.50;99.90;;;;;;5073752;28;20407;-83
2022/10/18 07:35:01;;;;;;;14.73;4.90;;;12.50;99.90;;;;;;5073678;28;20052;-79
2022/10/18 07:37:27;;;;;;;15.43;5.32;;;12.60;99.90;;;;;;5073284;28;20045;-81
2022/10/18 07:39:53;;;;;;;11.98;3.92;;;12.80;99.90;;;;;;5073690;28;20383;-78
2022/10/18 07:42:18;;;;;;;8.27;3.27;;;12.60;99.90;;;;;;5073643;28;20119;-82
2022/10/18 07:44:44;;;;;;;10.40;3.53;;;13.20;99.90;;;;;;5073175;28;20048;-81
2022/10/18 07:47:10;;;;;;;32.90;9.50;;;12.70;99.90;;;;;;5073622;28;20051;-82
2022/10/18 07:49:35;;;;;;;21.45;9.48;;;12.70;99.90;;;;;;5073439;28;20051;-79
2022/10/18 07:52:01;;;;;;;22.85;6.50;;;12.70;99.90;;;;;;5073480;28;20045;-86
2022/10/18 07:54:27;;;;;;;28.63;8.20;;;12.70;99.90;;;;;;5073377;28;20083;-83
2022/10/18 07:56:53;;;;;;;22.60;8.02;;;12.70;99.90;;;;;;5072097;28;20497;-81
2022/10/18 07:59:18;;;;;;;16.83;7.88;;;12.70;99.90;;;;;;5072870;28;20048;-81
2022/10/18 08:01:44;;;;;;;49.50;8.27;;;12.70;99.90;;;;;;5072136;28;20504;-81
2022/10/18 08:04:10;;;;;;;31.42;9.73;;;12.70;99.90;;;;;;5072929;28;20044;-80
2022/10/18 08:06:36;;;;;;;18.33;8.40;;;12.70;99.90;;;;;;5072747;28;20080;-79
2022/10/18 08:09:02;;;;;;;53.05;9.25;;;12.70;99.90;;;;;;5072852;28;20368;-79
2022/10/18 08:11:28;;;;;;;57.13;9.07;;;12.70;99.90;;;;;;5072969;28;20044;-82
2022/10/18 08:13:54;;;;;;;66.18;9.95;;;12.70;99.90;;;;;;5073408;28;20052;-84
2022/10/18 08:16:22;;;;;;;61.88;10.30;;;13.10;99.90;;;;;;5073065;28;20376;-84
2022/10/18 08:18:49;;;;;;;51.97;9.50;;;12.60;99.90;;;;;;5072974;28;20063;-81
2022/10/18 08:21:15;;;;;;;51.75;8.27;;;12.70;99.90;;;;;;5072920;28;20404;-83
2022/10/18 08:23:41;;;;;;;35.90;9.25;;;12.70;99.90;;;;;;5073023;28;20127;-79
2022/10/18 08:26:10;;;;;;;69.72;9.65;;;12.70;99.90;;;;;;5073386;28;20358;-80
2022/10/18 08:28:36;;;;;;;32.08;9.07;;;13.00;99.90;;;;;;5072973;28;20037;-79
2022/10/18 08:31:03;;;;;;;30.58;10.13;;;12.70;99.90;;;;;;5073039;28;20052;-83
2022/10/18 08:33:29;;;;;;;55.60;12.10;;;12.80;99.90;;;;;;5072786;28;20041;-79
2022/10/18 08:35:59;;;;;;;26.70;11.07;;;12.80;99.90;;;;;;5072273;28;20087;-82
2022/10/18 08:38:27;;;;;;;21.13;7.78;;;12.90;99.90;;;;;;5072917;28;20037;-78
2022/10/18 08:40:53;;;;;;;13.77;8.13;;;13.50;99.90;;;;;;5072623;28;20561;-82
2022/10/18 08:43:37;;;;;;;21.10;9.00;;;12.80;99.90;;;;;;5075009;28;20044;-78
2022/10/18 08:46:03;;;;;;;21.70;8.52;;;13.00;99.90;;;;;;5076586;28;20430;-84
2022/10/18 08:48:37;;;;;;;24.47;7.50;;;13.10;99.90;;;;;;5076180;28;20044;-78
2022/10/18 08:51:05;;;;;;;12.18;7.20;;;13.80;99.90;;;;;;5076546;28;20366;-78
2022/10/18 08:53:43;;;;;;;8.85;7.88;;;13.10;99.90;;;;;;5076135;28;20044;-83
2022/10/18 08:56:13;;;;;;;;;;;13.80;99.90;;;;;;5076824;28;20080;-77
2022/10/18 08:58:43;;;;;;;18.23;8.63;;;13.20;99.90;;;;;;5076074;28;19934;-80
2022/10/18 09:01:33;;;;;;;9.63;6.53;;;13.20;99.90;;;;;;5075653;28;20044;-77
2022/10/18 09:04:20;;;;;;;13.30;9.35;;;13.20;99.90;;;;;;5067943;28;20048;-78
2022/10/18 09:07:01;;;;;;;14.98;8.70;;;13.30;99.90;;;;;;5064871;28;20045;-79
2022/10/18 09:10:00;;;;;;;9.52;8.43;;;13.30;99.90;;;;;;5055606;28;20523;-80
2022/10/18 09:12:34;;;;;;;14.00;7.47;;;13.40;99.90;;;;;;5056042;28;20091;-77
2022/10/18 09:15:09;;;;;;;12.80;8.55;;;13.30;99.90;;;;;;5055381;28;20052;-77
2022/10/18 09:18:07;;;;;;;11.95;8.77;;;13.40;99.90;;;;;;5055732;28;20087;-80
2022/10/18 09:20:46;;;;;;;10.50;8.52;;;13.50;99.90;;;;;;5047327;28;20087;-78
2022/10/18 09:23:42;;;;;;;12.50;8.80;;;13.60;99.90;;;;;;5054788;28;20131;-81
2022/10/18 09:26:20;;;;;;;8.82;7.45;;;13.60;99.90;;;;;;5055670;28;20052;-79
2022/10/18 09:29:23;;;;;;;11.45;8.52;;;14.20;99.90;;;;;;5055600;28;20047;-79
2022/10/18 09:32:34;;;;;;;11.55;9.07;;;13.80;99.90;;;;;;5054934;28;20055;-81
2022/10/18 09:35:12;;;;;;;13.10;7.63;;;13.90;99.90;;;;;;5054905;28;20041;-80
2022/10/18 09:37:38;;;;;;;;;;;14.00;99.90;;;;;;5055664;28;20538;-78
2022/10/18 09:40:11;;;;;;;12.88;8.15;;;13.90;99.90;;;;;;5070856;28;19920;-79
2022/10/18 09:42:40;;;;;;;15.50;8.35;;;14.00;99.90;;;;;;5055667;28;20404;-79
2022/10/18 09:45:22;;;;;;;11.40;7.28;;;14.00;99.90;;;;;;5055132;28;20045;-81
2022/10/18 09:48:00;;;;;;;10.32;6.90;;;14.20;99.90;;;;;;5054943;28;20045;-81
2022/10/18 09:50:31;;;;;;;;;;;14.20;99.90;;;;;;5055834;28;20070;-79
2022/10/18 09:53:11;;;;;;;13.20;8.02;;;14.30;99.90;;;;;;5054986;28;19928;-79
2022/10/18 09:56:01;;;;;;;13.27;7.85;;;14.30;99.90;;;;;;5055080;28;20057;-78
2022/10/18 09:58:52;;;;;;;12.63;7.78;;;14.30;99.90;;;;;;5055426;28;20080;-78
2022/10/18 10:01:27;;;;;;;12.25;8.30;;;14.40;99.90;;;;;;5066302;28;20053;-81
2022/10/18 10:03:53;;;;;;;15.05;7.80;;;14.60;99.90;;;;;;5074908;28;20040;-77
2022/10/18 10:06:30;;;;;;;10.80;7.27;;;14.60;99.90;;;;;;5075008;28;20038;-80
2022/10/18 10:09:05;;;;;;;10.07;7.15;;;14.70;99.90;;;;;;5073740;28;20119;-77
2022/10/18 10:11:35;;;;;;;9.77;7.18;;;14.70;99.90;;;;;;5074806;28;20120;-78
2022/10/18 10:14:22;;;;;;;10.38;6.93;;;14.70;99.90;;;;;;5074423;28;20051;-81
2022/10/18 10:17:04;;;;;;;11.83;7.17;;;14.70;99.90;;;;;;5074687;28;20181;-80
2022/10/18 10:19:31;;;;;;;12.63;7.75;;;14.70;99.90;;;;;;5074440;28;20496;-80
2022/10/18 10:22:08;;;;;;;10.15;6.40;;;14.70;99.90;;;;;;5074562;28;20052;-81
2022/10/18 10:24:42;;;;;;;13.48;7.50;;;14.70;99.90;;;;;;5074571;28;20091;-82
2022/10/18 10:27:16;;;;;;;15.90;7.70;;;14.70;99.90;;;;;;5074573;28;20051;-83
2022/10/18 10:29:45;;;;;;;11.25;7.35;;;14.70;99.90;;;;;;5074414;28;20066;-78
2022/10/18 10:32:17;;;;;;;11.38;7.65;;;15.20;99.90;;;;;;5073991;28;20480;-79
2022/10/18 10:34:43;;;;;;;12.60;7.40;;;14.90;99.90;;;;;;5074447;28;20044;-82
2022/10/18 10:37:22;;;;;;;11.57;7.23;;;15.00;99.90;;;;;;5074147;28;20040;-81
2022/10/18 10:40:03;;;;;;;14.50;6.35;;;15.10;99.90;;;;;;5074520;28;20044;-80
2022/10/18 10:42:35;;;;;;;13.52;6.40;;;15.10;99.90;;;;;;5072990;28;20561;-80
2022/10/18 10:45:01;;;;;;;12.73;5.15;;;15.20;99.90;;;;;;5056684;28;20053;-80
2022/10/18 10:47:31;;;;;;;11.03;5.37;;;15.30;99.90;;;;;;5074297;28;20048;-80
2022/10/18 10:49:57;;;;;;;13.30;5.97;;;15.40;99.90;;;;;;5073675;28;20045;-82
2022/10/18 10:52:26;;;;;;;10.60;5.57;;;15.50;99.90;;;;;;5074175;28;20051;-78
2022/10/18 10:54:56;;;;;;;14.57;5.60;;;15.60;99.90;;;;;;5074341;28;20052;-79
2022/10/18 10:57:24;;;;;;;8.93;4.40;;;15.80;99.90;;;;;;5073922;28;20041;-78
2022/10/18 10:59:54;;;;;;;7.43;3.17;;;15.90;99.90;;;;;;5072803;28;20162;-83
2022/10/18 11:02:34;;;;;;;7.82;2.90;;;15.80;99.90;;;;;;5073198;28;20388;-81
2022/10/18 11:05:28;;;;;;;13.15;3.72;;;15.80;99.90;;;;;;5072471;28;20048;-79
2022/10/18 11:08:00;;;;;;;10.52;3.63;;;15.80;99.90;;;;;;5073539;28;20388;-81
2022/10/18 11:10:33;;;;;;;9.32;3.65;;;15.80;99.90;;;;;;5074980;28;20097;-81
2022/10/18 11:13:22;;;;;;;10.50;3.38;;;15.90;99.90;;;;;;5073555;28;20048;-82
2022/10/18 11:16:10;;;;;;;5.90;2.80;;;16.00;99.90;;;;;;5073304;28;20500;-82
2022/10/18 11:18:36;;;;;;;;;;;16.10;99.90;;;;;;5073830;28;20151;-82
2022/10/18 11:21:41;;;;;;;10.98;2.65;;;16.00;99.90;;;;;;5073316;28;19921;-82
2022/10/18 11:24:14;;;;;;;9.80;2.33;;;16.00;99.90;;;;;;5051310;28;20052;-79
2022/10/18 11:26:48;;;;;;;6.15;2.10;;;16.10;99.90;;;;;;5051278;28;20077;-78
2022/10/18 11:29:34;;;;;;;7.80;2.30;;;16.10;99.90;;;;;;5044283;28;20061;-83
2022/10/18 11:32:27;;;;;;;5.80;2.15;;;16.00;99.90;;;;;;5052809;28;20057;-82
2022/10/18 11:34:52;;;;;;;9.88;2.00;;;15.80;99.90;;;;;;5053530;28;20045;-81
2022/10/18 11:37:37;;;;;;;5.83;1.80;;;16.20;99.90;;;;;;5069063;28;20132;-83
2022/10/18 11:40:27;;;;;;;6.25;1.85;;;15.50;99.90;;;;;;5051812;28;20481;-79
2022/10/18 11:43:14;;;;;;;8.68;1.83;;;15.40;99.90;;;;;;5052777;28;20041;-81
2022/10/18 11:45:53;;;;;;;9.50;1.97;;;15.30;99.90;;;;;;5052319;28;20096;-82
2022/10/18 11:48:45;;;;;;;8.75;2.38;;;15.30;99.90;;;;;;5053141;28;20061;-79
2022/10/18 11:51:26;;;;;;;10.60;1.60;;;15.40;99.90;;;;;;5053234;28;20485;-81
2022/10/18 11:54:17;;;;;;;8.95;2.00;;;15.50;99.90;;;;;;5053562;28;20095;-79
2022/10/18 11:57:01;;;;;;;8.07;1.80;;;15.70;99.90;;;;;;5052976;28;20047;-84
2022/10/18 11:59:36;;;;;;;7.30;1.83;;;15.70;99.90;;;;;;5052462;28;20090;-79
2022/10/18 12:02:16;;;;;;;5.57;1.75;;;15.90;99.90;;;;;;5053332;28;20111;-79
2022/10/18 12:04:55;;;;;;;9.75;2.22;;;16.00;99.90;;;;;;5052956;28;20044;-84
2022/10/18 12:07:22;;;;;;;6.18;1.90;;;16.10;99.90;;;;;;5070590;28;20422;-81
2022/10/18 12:09:52;;;;;;;7.57;2.80;;;16.20;99.90;;;;;;5073306;28;20044;-80
2022/10/18 12:12:28;;;;;;;9.52;2.33;;;16.80;99.90;;;;;;5073300;28;20041;-82
2022/10/18 12:14:59;;;;;;;10.77;2.25;;;16.70;99.90;;;;;;5074119;28;20052;-81
2022/10/18 12:17:34;;;;;;;8.18;1.90;;;16.60;99.90;;;;;;5073968;28;20047;-81
2022/10/18 12:20:10;;;;;;;7.57;1.85;;;16.60;99.90;;;;;;5077006;28;20051;-83
2022/10/18 12:22:50;;;;;;;9.60;2.25;;;16.70;99.90;;;;;;5076744;28;20531;-83
2022/10/18 12:25:17;;;;;;;6.47;1.73;;;16.70;99.90;;;;;;5076695;28;20585;-82
2022/10/18 12:27:53;;;;;;;9.25;2.17;;;16.80;99.90;;;;;;5075788;28;20119;-81
2022/10/18 12:30:24;;;;;;;8.77;1.85;;;16.60;99.90;;;;;;5076178;28;20044;-83
2022/10/18 12:33:01;;;;;;;6.95;2.03;;;16.90;99.90;;;;;;5076671;28;20098;-81
2022/10/18 12:35:34;;;;;;;7.32;1.70;;;16.90;99.90;;;;;;5075583;28;20531;-80
2022/10/18 12:38:20;;;;;;;5.78;1.55;;;16.90;99.90;;;;;;5076541;28;20128;-78
2022/10/18 12:40:49;;;;;;;7.53;2.47;;;16.90;99.90;;;;;;5076315;28;20431;-80
2022/10/18 12:43:26;;;;;;;7.43;1.60;;;16.90;99.90;;;;;;5075304;28;20050;-84
2022/10/18 12:45:58;;;;;;;9.07;1.95;;;16.90;99.90;;;;;;5092450;28;20044;-82
2022/10/18 12:48:44;;;;;;;6.80;1.65;;;16.90;99.90;;;;;;5076548;28;20063;-82
2022/10/18 12:51:17;;;;;;;7.05;1.95;;;16.80;99.90;;;;;;5074732;28;20036;-82
2022/10/18 12:54:07;;;;;;;11.15;2.13;;;16.90;99.90;;;;;;5076388;28;20048;-82